sensor_id;sensor_type;location;lat;lon;timestamp;temperature;humidity
68842;SHT35;55849;48.482;2.332;2024-03-25T00:01:23;9.14;62.51
68842;SHT35;55849;48.482;2.332;2024-03-25T00:04:24;9.07;61.97
68842;SHT35;55849;48.482;2.332;2024-03-25T00:07:26;9.01;61.96
68842;SHT35;55849;48.482;2.332;2024-03-25T00:10:27;8.96;62.13
68842;SHT35;55849;48.482;2.332;2024-03-25T00:13:30;8.93;61.71
68842;SHT35;55849;48.482;2.332;2024-03-25T00:16:30;8.89;61.75
68842;SHT35;55849;48.482;2.332;2024-03-25T00:19:32;8.82;62.32
68842;SHT35;55849;48.482;2.332;2024-03-25T00:22:32;8.80;61.97
68842;SHT35;55849;48.482;2.332;2024-03-25T00:25:34;8.77;62.27
68842;SHT35;55849;48.482;2.332;2024-03-25T00:28:36;8.73;62.14
68842;SHT35;55849;48.482;2.332;2024-03-25T00:31:38;8.68;62.53
68842;SHT35;55849;48.482;2.332;2024-03-25T00:34:39;8.66;62.37
68842;SHT35;55849;48.482;2.332;2024-03-25T00:37:41;8.69;62.46
68842;SHT35;55849;48.482;2.332;2024-03-25T00:40:42;8.64;62.24
68842;SHT35;55849;48.482;2.332;2024-03-25T00:43:45;8.55;62.27
68842;SHT35;55849;48.482;2.332;2024-03-25T00:46:45;8.55;62.25
68842;SHT35;55849;48.482;2.332;2024-03-25T00:49:47;8.52;62.13
68842;SHT35;55849;48.482;2.332;2024-03-25T00:52:48;8.51;62.08
68842;SHT35;55849;48.482;2.332;2024-03-25T00:55:49;8.45;61.94
68842;SHT35;55849;48.482;2.332;2024-03-25T00:58:53;8.41;62.07
68842;SHT35;55849;48.482;2.332;2024-03-25T01:01:53;8.40;61.83
68842;SHT35;55849;48.482;2.332;2024-03-25T01:04:55;8.36;61.85
68842;SHT35;55849;48.482;2.332;2024-03-25T01:07:56;8.30;61.84
68842;SHT35;55849;48.482;2.332;2024-03-25T01:10:58;8.27;61.98
68842;SHT35;55849;48.482;2.332;2024-03-25T01:14:00;8.24;61.54
68842;SHT35;55849;48.482;2.332;2024-03-25T01:17:02;8.21;61.73
68842;SHT35;55849;48.482;2.332;2024-03-25T01:20:04;8.14;61.72
68842;SHT35;55849;48.482;2.332;2024-03-25T01:23:06;8.10;61.68
68842;SHT35;55849;48.482;2.332;2024-03-25T01:26:06;8.09;62.04
68842;SHT35;55849;48.482;2.332;2024-03-25T01:29:09;8.07;61.87
68842;SHT35;55849;48.482;2.332;2024-03-25T01:32:10;8.06;62.13
68842;SHT35;55849;48.482;2.332;2024-03-25T01:35:12;8.04;62.07
68842;SHT35;55849;48.482;2.332;2024-03-25T01:38:12;7.99;62.41
68842;SHT35;55849;48.482;2.332;2024-03-25T01:41:14;7.96;62.44
68842;SHT35;55849;48.482;2.332;2024-03-25T01:44:17;7.95;62.66
68842;SHT35;55849;48.482;2.332;2024-03-25T01:47:18;7.93;62.67
68842;SHT35;55849;48.482;2.332;2024-03-25T01:50:20;7.93;62.22
68842;SHT35;55849;48.482;2.332;2024-03-25T01:53:23;7.92;62.22
68842;SHT35;55849;48.482;2.332;2024-03-25T01:56:25;7.87;62.51
68842;SHT35;55849;48.482;2.332;2024-03-25T01:59:29;7.89;62.19
68842;SHT35;55849;48.482;2.332;2024-03-25T02:02:30;7.85;62.09
68842;SHT35;55849;48.482;2.332;2024-03-25T02:05:34;7.82;61.96
68842;SHT35;55849;48.482;2.332;2024-03-25T02:08:35;7.78;62.14
68842;SHT35;55849;48.482;2.332;2024-03-25T02:11:37;7.79;61.94
68842;SHT35;55849;48.482;2.332;2024-03-25T02:14:40;7.75;61.98
68842;SHT35;55849;48.482;2.332;2024-03-25T02:17:42;7.71;61.86
68842;SHT35;55849;48.482;2.332;2024-03-25T02:20:42;7.68;61.74
68842;SHT35;55849;48.482;2.332;2024-03-25T02:23:46;7.67;61.97
68842;SHT35;55849;48.482;2.332;2024-03-25T02:26:48;7.64;62.08
68842;SHT35;55849;48.482;2.332;2024-03-25T02:29:50;7.60;62.29
68842;SHT35;55849;48.482;2.332;2024-03-25T02:32:50;7.60;62.64
68842;SHT35;55849;48.482;2.332;2024-03-25T02:35:52;7.60;62.45
68842;SHT35;55849;48.482;2.332;2024-03-25T02:38:53;7.60;62.62
68842;SHT35;55849;48.482;2.332;2024-03-25T02:41:56;7.61;62.70
68842;SHT35;55849;48.482;2.332;2024-03-25T02:44:57;7.58;62.59
68842;SHT35;55849;48.482;2.332;2024-03-25T02:47:59;7.60;62.57
68842;SHT35;55849;48.482;2.332;2024-03-25T02:51:01;7.61;62.64
68842;SHT35;55849;48.482;2.332;2024-03-25T02:54:01;7.60;62.18
68842;SHT35;55849;48.482;2.332;2024-03-25T02:57:04;7.60;62.13
68842;SHT35;55849;48.482;2.332;2024-03-25T03:00:07;7.52;62.04
68842;SHT35;55849;48.482;2.332;2024-03-25T03:03:09;7.54;62.22
68842;SHT35;55849;48.482;2.332;2024-03-25T03:06:11;7.47;62.13
68842;SHT35;55849;48.482;2.332;2024-03-25T03:09:11;7.48;62.44
68842;SHT35;55849;48.482;2.332;2024-03-25T03:12:14;7.47;62.49
68842;SHT35;55849;48.482;2.332;2024-03-25T03:15:15;7.48;62.34
68842;SHT35;55849;48.482;2.332;2024-03-25T03:18:16;7.44;62.06
68842;SHT35;55849;48.482;2.332;2024-03-25T03:21:17;7.41;62.19
68842;SHT35;55849;48.482;2.332;2024-03-25T03:24:19;7.41;62.09
68842;SHT35;55849;48.482;2.332;2024-03-25T03:27:22;7.38;62.39
68842;SHT35;55849;48.482;2.332;2024-03-25T03:30:23;7.36;62.11
68842;SHT35;55849;48.482;2.332;2024-03-25T03:33:25;7.34;62.17
68842;SHT35;55849;48.482;2.332;2024-03-25T03:36:26;7.33;62.08
68842;SHT35;55849;48.482;2.332;2024-03-25T03:39:28;7.28;62.49
68842;SHT35;55849;48.482;2.332;2024-03-25T03:42:30;7.28;62.52
68842;SHT35;55849;48.482;2.332;2024-03-25T03:45:33;7.30;62.44
68842;SHT35;55849;48.482;2.332;2024-03-25T03:48:34;7.31;62.52
68842;SHT35;55849;48.482;2.332;2024-03-25T03:51:37;7.27;62.23
68842;SHT35;55849;48.482;2.332;2024-03-25T03:54:38;7.24;62.26
68842;SHT35;55849;48.482;2.332;2024-03-25T03:57:42;7.23;62.27
68842;SHT35;55849;48.482;2.332;2024-03-25T04:00:43;7.22;62.30
68842;SHT35;55849;48.482;2.332;2024-03-25T04:03:44;7.19;62.24
68842;SHT35;55849;48.482;2.332;2024-03-25T04:06:45;7.19;62.31
68842;SHT35;55849;48.482;2.332;2024-03-25T04:09:46;7.19;62.65
68842;SHT35;55849;48.482;2.332;2024-03-25T04:12:48;7.15;62.65
68842;SHT35;55849;48.482;2.332;2024-03-25T04:15:50;7.16;62.32
68842;SHT35;55849;48.482;2.332;2024-03-25T04:18:53;7.16;62.50
68842;SHT35;55849;48.482;2.332;2024-03-25T04:21:56;7.13;62.34
68842;SHT35;55849;48.482;2.332;2024-03-25T04:24:57;7.15;62.44
68842;SHT35;55849;48.482;2.332;2024-03-25T04:28:00;7.13;62.27
68842;SHT35;55849;48.482;2.332;2024-03-25T04:31:02;7.10;62.13
68842;SHT35;55849;48.482;2.332;2024-03-25T04:34:03;7.08;62.51
68842;SHT35;55849;48.482;2.332;2024-03-25T04:37:05;7.05;62.37
68842;SHT35;55849;48.482;2.332;2024-03-25T04:40:06;7.06;62.24
68842;SHT35;55849;48.482;2.332;2024-03-25T04:43:09;7.03;62.33
68842;SHT35;55849;48.482;2.332;2024-03-25T04:46:09;7.05;62.60
68842;SHT35;55849;48.482;2.332;2024-03-25T04:49:10;6.99;62.66
68842;SHT35;55849;48.482;2.332;2024-03-25T04:52:12;6.98;62.77
68842;SHT35;55849;48.482;2.332;2024-03-25T04:55:13;6.96;62.92
68842;SHT35;55849;48.482;2.332;2024-03-25T04:58:15;6.98;63.05
68842;SHT35;55849;48.482;2.332;2024-03-25T05:01:15;6.99;63.07
68842;SHT35;55849;48.482;2.332;2024-03-25T05:04:16;7.01;62.88
68842;SHT35;55849;48.482;2.332;2024-03-25T05:07:17;7.02;62.60
68842;SHT35;55849;48.482;2.332;2024-03-25T05:10:17;6.99;62.59
68842;SHT35;55849;48.482;2.332;2024-03-25T05:13:19;6.99;62.52
68842;SHT35;55849;48.482;2.332;2024-03-25T05:16:20;6.95;62.37
68842;SHT35;55849;48.482;2.332;2024-03-25T05:19:21;6.92;62.38
68842;SHT35;55849;48.482;2.332;2024-03-25T05:22:21;6.91;62.32
68842;SHT35;55849;48.482;2.332;2024-03-25T05:25:22;6.88;62.23
68842;SHT35;55849;48.482;2.332;2024-03-25T05:28:24;6.88;62.63
68842;SHT35;55849;48.482;2.332;2024-03-25T05:31:25;6.85;62.67
68842;SHT35;55849;48.482;2.332;2024-03-25T05:34:27;6.88;62.73
68842;SHT35;55849;48.482;2.332;2024-03-25T05:37:28;6.89;62.60
68842;SHT35;55849;48.482;2.332;2024-03-25T05:40:28;6.88;63.04
68842;SHT35;55849;48.482;2.332;2024-03-25T05:43:30;6.87;62.67
68842;SHT35;55849;48.482;2.332;2024-03-25T05:46:31;6.88;62.90
68842;SHT35;55849;48.482;2.332;2024-03-25T05:49:32;6.84;62.89
68842;SHT35;55849;48.482;2.332;2024-03-25T05:52:32;6.87;63.09
68842;SHT35;55849;48.482;2.332;2024-03-25T05:55:33;6.88;62.88
68842;SHT35;55849;48.482;2.332;2024-03-25T05:58:35;6.88;62.95
68842;SHT35;55849;48.482;2.332;2024-03-25T06:01:36;6.88;62.71
68842;SHT35;55849;48.482;2.332;2024-03-25T06:04:37;6.88;62.89
68842;SHT35;55849;48.482;2.332;2024-03-25T06:07:37;6.87;63.00
68842;SHT35;55849;48.482;2.332;2024-03-25T06:10:38;6.88;63.21
68842;SHT35;55849;48.482;2.332;2024-03-25T06:13:40;6.88;63.16
68842;SHT35;55849;48.482;2.332;2024-03-25T06:16:40;6.87;63.17
68842;SHT35;55849;48.482;2.332;2024-03-25T06:19:41;6.91;63.50
68842;SHT35;55849;48.482;2.332;2024-03-25T06:22:42;6.92;63.49
68842;SHT35;55849;48.482;2.332;2024-03-25T06:25:42;6.95;63.67
68842;SHT35;55849;48.482;2.332;2024-03-25T06:28:44;6.98;63.47
68842;SHT35;55849;48.482;2.332;2024-03-25T06:31:45;7.02;63.96
68842;SHT35;55849;48.482;2.332;2024-03-25T06:35:04;7.05;63.89
68842;SHT35;55849;48.482;2.332;2024-03-25T06:38:05;7.06;63.97
68842;SHT35;55849;48.482;2.332;2024-03-25T06:41:05;7.08;64.29
68842;SHT35;55849;48.482;2.332;2024-03-25T06:44:08;7.09;64.30
68842;SHT35;55849;48.482;2.332;2024-03-25T06:47:08;7.10;64.22
68842;SHT35;55849;48.482;2.332;2024-03-25T06:50:09;7.17;64.45
68842;SHT35;55849;48.482;2.332;2024-03-25T06:53:10;7.20;64.47
68842;SHT35;55849;48.482;2.332;2024-03-25T06:56:11;7.23;64.52
68842;SHT35;55849;48.482;2.332;2024-03-25T06:59:13;7.23;64.43
68842;SHT35;55849;48.482;2.332;2024-03-25T07:02:14;7.24;64.39
68842;SHT35;55849;48.482;2.332;2024-03-25T07:05:14;7.24;64.51
68842;SHT35;55849;48.482;2.332;2024-03-25T07:08:15;7.28;64.79
68842;SHT35;55849;48.482;2.332;2024-03-25T07:11:16;7.31;65.21
68842;SHT35;55849;48.482;2.332;2024-03-25T07:14:18;7.36;65.40
68842;SHT35;55849;48.482;2.332;2024-03-25T07:17:19;7.41;65.53
68842;SHT35;55849;48.482;2.332;2024-03-25T07:20:19;7.43;65.72
68842;SHT35;55849;48.482;2.332;2024-03-25T07:23:20;7.48;65.60
68842;SHT35;55849;48.482;2.332;2024-03-25T07:26:21;7.57;65.56
68842;SHT35;55849;48.482;2.332;2024-03-25T07:29:23;7.60;65.89
68842;SHT35;55849;48.482;2.332;2024-03-25T07:32:23;7.62;65.78
68842;SHT35;55849;48.482;2.332;2024-03-25T07:35:24;7.67;66.26
68842;SHT35;55849;48.482;2.332;2024-03-25T07:38:25;7.71;66.31
68842;SHT35;55849;48.482;2.332;2024-03-25T07:41:26;7.77;66.48
68842;SHT35;55849;48.482;2.332;2024-03-25T07:44:28;7.83;66.54
68842;SHT35;55849;48.482;2.332;2024-03-25T07:47:28;7.89;66.94
68842;SHT35;55849;48.482;2.332;2024-03-25T07:50:29;7.93;67.28
68842;SHT35;55849;48.482;2.332;2024-03-25T07:53:30;7.96;66.99
68842;SHT35;55849;48.482;2.332;2024-03-25T07:56:30;8.03;67.24
68842;SHT35;55849;48.482;2.332;2024-03-25T07:59:32;8.07;67.41
68842;SHT35;55849;48.482;2.332;2024-03-25T08:02:33;8.13;67.77
68842;SHT35;55849;48.482;2.332;2024-03-25T08:05:34;8.17;68.03
68842;SHT35;55849;48.482;2.332;2024-03-25T08:08:34;8.20;68.08
68842;SHT35;55849;48.482;2.332;2024-03-25T08:11:35;8.26;68.09
68842;SHT35;55849;48.482;2.332;2024-03-25T08:14:37;8.29;68.27
68842;SHT35;55849;48.482;2.332;2024-03-25T08:17:38;8.34;68.39
68842;SHT35;55849;48.482;2.332;2024-03-25T08:20:38;8.40;68.39
68842;SHT35;55849;48.482;2.332;2024-03-25T08:23:39;8.44;68.26
68842;SHT35;55849;48.482;2.332;2024-03-25T08:26:40;8.49;68.53
68842;SHT35;55849;48.482;2.332;2024-03-25T08:29:42;8.52;68.31
68842;SHT35;55849;48.482;2.332;2024-03-25T08:32:43;8.59;68.51
68842;SHT35;55849;48.482;2.332;2024-03-25T08:35:43;8.66;68.65
68842;SHT35;55849;48.482;2.332;2024-03-25T08:38:44;8.72;68.97
68842;SHT35;55849;48.482;2.332;2024-03-25T08:41:45;8.76;68.62
68842;SHT35;55849;48.482;2.332;2024-03-25T08:44:47;8.83;68.87
68842;SHT35;55849;48.482;2.332;2024-03-25T08:47:47;8.89;68.91
68842;SHT35;55849;48.482;2.332;2024-03-25T08:50:48;8.94;69.01
68842;SHT35;55849;48.482;2.332;2024-03-25T08:53:49;9.01;69.27
68842;SHT35;55849;48.482;2.332;2024-03-25T08:56:49;9.10;69.23
68842;SHT35;55849;48.482;2.332;2024-03-25T08:59:51;9.17;69.31
68842;SHT35;55849;48.482;2.332;2024-03-25T09:02:52;9.25;69.30
68842;SHT35;55849;48.482;2.332;2024-03-25T09:05:53;9.30;68.99
68842;SHT35;55849;48.482;2.332;2024-03-25T09:08:54;9.38;68.91
68842;SHT35;55849;48.482;2.332;2024-03-25T09:12:09;9.48;69.18
68842;SHT35;55849;48.482;2.332;2024-03-25T09:15:11;9.55;68.93
68842;SHT35;55849;48.482;2.332;2024-03-25T09:18:12;9.65;69.10
68842;SHT35;55849;48.482;2.332;2024-03-25T09:21:13;9.72;68.95
68842;SHT35;55849;48.482;2.332;2024-03-25T09:24:13;9.82;69.13
68842;SHT35;55849;48.482;2.332;2024-03-25T09:27:14;9.89;69.00
68842;SHT35;55849;48.482;2.332;2024-03-25T09:30:18;9.95;69.14
68842;SHT35;55849;48.482;2.332;2024-03-25T09:33:18;10.04;68.87
68842;SHT35;55849;48.482;2.332;2024-03-25T09:36:19;10.12;68.87
68842;SHT35;55849;48.482;2.332;2024-03-25T09:39:20;10.21;68.35
68842;SHT35;55849;48.482;2.332;2024-03-25T09:42:25;10.32;68.44
68842;SHT35;55849;48.482;2.332;2024-03-25T09:45:29;10.41;68.49
68842;SHT35;55849;48.482;2.332;2024-03-25T09:48:30;10.48;68.37
68842;SHT35;55849;48.482;2.332;2024-03-25T09:51:32;10.55;68.52
68842;SHT35;55849;48.482;2.332;2024-03-25T09:54:32;10.66;68.29
68842;SHT35;55849;48.482;2.332;2024-03-25T09:57:34;10.73;68.18
68842;SHT35;55849;48.482;2.332;2024-03-25T10:00:36;10.81;67.95
68842;SHT35;55849;48.482;2.332;2024-03-25T10:03:37;10.93;67.40
68842;SHT35;55849;48.482;2.332;2024-03-25T10:06:39;10.97;67.26
68842;SHT35;55849;48.482;2.332;2024-03-25T10:09:40;11.08;67.28
68842;SHT35;55849;48.482;2.332;2024-03-25T10:12:40;11.18;67.63
68842;SHT35;55849;48.482;2.332;2024-03-25T10:15:43;11.25;66.47
68842;SHT35;55849;48.482;2.332;2024-03-25T10:18:43;11.33;66.38
68842;SHT35;55849;48.482;2.332;2024-03-25T10:21:44;11.42;66.23
68842;SHT35;55849;48.482;2.332;2024-03-25T10:24:45;11.50;65.26
68842;SHT35;55849;48.482;2.332;2024-03-25T10:27:53;11.57;65.53
68842;SHT35;55849;48.482;2.332;2024-03-25T10:30:56;11.64;65.91
68842;SHT35;55849;48.482;2.332;2024-03-25T10:34:02;11.70;65.58
68842;SHT35;55849;48.482;2.332;2024-03-25T10:37:04;11.80;65.35
68842;SHT35;55849;48.482;2.332;2024-03-25T10:40:08;11.84;65.27
68842;SHT35;55849;48.482;2.332;2024-03-25T10:43:11;11.94;64.47
68842;SHT35;55849;48.482;2.332;2024-03-25T10:46:17;12.02;64.49
68842;SHT35;55849;48.482;2.332;2024-03-25T10:49:24;12.11;64.59
68842;SHT35;55849;48.482;2.332;2024-03-25T10:52:27;12.18;63.66
68842;SHT35;55849;48.482;2.332;2024-03-25T10:55:31;12.28;64.56
68842;SHT35;55849;48.482;2.332;2024-03-25T10:58:33;12.32;64.09
68842;SHT35;55849;48.482;2.332;2024-03-25T11:01:35;12.42;63.51
68842;SHT35;55849;48.482;2.332;2024-03-25T11:04:37;12.50;63.57
68842;SHT35;55849;48.482;2.332;2024-03-25T11:07:38;12.56;63.06
68842;SHT35;55849;48.482;2.332;2024-03-25T11:10:42;12.64;64.04
68842;SHT35;55849;48.482;2.332;2024-03-25T11:13:43;12.73;62.40
68842;SHT35;55849;48.482;2.332;2024-03-25T11:16:51;12.84;62.82
68842;SHT35;55849;48.482;2.332;2024-03-25T11:19:52;12.91;62.13
68842;SHT35;55849;48.482;2.332;2024-03-25T11:22:52;12.98;60.41
68842;SHT35;55849;48.482;2.332;2024-03-25T11:25:56;13.03;59.84
68842;SHT35;55849;48.482;2.332;2024-03-25T11:28:57;13.13;59.56
68842;SHT35;55849;48.482;2.332;2024-03-25T11:32:01;13.19;59.45
68842;SHT35;55849;48.482;2.332;2024-03-25T11:35:04;13.22;60.67
68842;SHT35;55849;48.482;2.332;2024-03-25T11:38:05;13.27;59.60
68842;SHT35;55849;48.482;2.332;2024-03-25T11:41:06;13.35;58.71
68842;SHT35;55849;48.482;2.332;2024-03-25T11:44:08;13.42;58.18
68842;SHT35;55849;48.482;2.332;2024-03-25T11:47:10;13.48;57.98
68842;SHT35;55849;48.482;2.332;2024-03-25T11:50:13;13.53;57.77
68842;SHT35;55849;48.482;2.332;2024-03-25T11:53:14;13.62;56.95
68842;SHT35;55849;48.482;2.332;2024-03-25T11:56:15;13.70;58.00
68842;SHT35;55849;48.482;2.332;2024-03-25T11:59:15;13.79;57.31
68842;SHT35;55849;48.482;2.332;2024-03-25T12:02:18;13.90;56.80
68842;SHT35;55849;48.482;2.332;2024-03-25T12:05:19;14.01;57.12
68842;SHT35;55849;48.482;2.332;2024-03-25T12:08:20;14.12;55.09
68842;SHT35;55849;48.482;2.332;2024-03-25T12:11:20;14.23;55.14
68842;SHT35;55849;48.482;2.332;2024-03-25T12:14:21;14.31;56.46
68842;SHT35;55849;48.482;2.332;2024-03-25T12:17:23;14.38;56.16
68842;SHT35;55849;48.482;2.332;2024-03-25T12:20:24;14.45;54.26
68842;SHT35;55849;48.482;2.332;2024-03-25T12:23:29;14.49;54.53
68842;SHT35;55849;48.482;2.332;2024-03-25T12:26:30;14.57;53.72
68842;SHT35;55849;48.482;2.332;2024-03-25T12:29:31;14.63;53.82
68842;SHT35;55849;48.482;2.332;2024-03-25T12:32:37;14.71;53.67
68842;SHT35;55849;48.482;2.332;2024-03-25T12:35:38;14.78;52.35
68842;SHT35;55849;48.482;2.332;2024-03-25T12:38:39;14.86;52.65
68842;SHT35;55849;48.482;2.332;2024-03-25T12:41:39;14.93;52.49
68842;SHT35;55849;48.482;2.332;2024-03-25T12:44:40;14.99;52.22
68842;SHT35;55849;48.482;2.332;2024-03-25T12:47:42;15.07;51.80
68842;SHT35;55849;48.482;2.332;2024-03-25T12:50:44;15.16;52.74
68842;SHT35;55849;48.482;2.332;2024-03-25T12:53:44;15.22;52.15
68842;SHT35;55849;48.482;2.332;2024-03-25T12:56:45;15.33;50.99
68842;SHT35;55849;48.482;2.332;2024-03-25T12:59:45;15.42;50.78
68842;SHT35;55849;48.482;2.332;2024-03-25T13:02:48;15.58;50.50
68842;SHT35;55849;48.482;2.332;2024-03-25T13:05:49;15.79;49.82
68842;SHT35;55849;48.482;2.332;2024-03-25T13:08:49;16.04;49.67
68842;SHT35;55849;48.482;2.332;2024-03-25T13:11:50;16.28;49.69
68842;SHT35;55849;48.482;2.332;2024-03-25T13:14:51;16.49;50.20
68842;SHT35;55849;48.482;2.332;2024-03-25T13:17:53;16.75;48.00
68842;SHT35;55849;48.482;2.332;2024-03-25T13:20:53;16.93;49.23
68842;SHT35;55849;48.482;2.332;2024-03-25T13:23:54;17.10;48.90
68842;SHT35;55849;48.482;2.332;2024-03-25T13:26:55;17.27;47.53
68842;SHT35;55849;48.482;2.332;2024-03-25T13:29:55;17.38;46.60
68842;SHT35;55849;48.482;2.332;2024-03-25T13:32:57;17.45;47.07
68842;SHT35;55849;48.482;2.332;2024-03-25T13:35:58;17.48;46.73
68842;SHT35;55849;48.482;2.332;2024-03-25T13:38:59;17.48;46.13
68842;SHT35;55849;48.482;2.332;2024-03-25T13:41:59;17.46;46.71
68842;SHT35;55849;48.482;2.332;2024-03-25T13:45:00;17.41;45.64
68842;SHT35;55849;48.482;2.332;2024-03-25T13:48:02;17.36;45.15
68842;SHT35;55849;48.482;2.332;2024-03-25T13:51:03;17.31;45.12
68842;SHT35;55849;48.482;2.332;2024-03-25T13:54:04;17.25;45.72
68842;SHT35;55849;48.482;2.332;2024-03-25T13:57:05;17.17;46.66
68842;SHT35;55849;48.482;2.332;2024-03-25T14:00:07;17.20;45.43
68842;SHT35;55849;48.482;2.332;2024-03-25T14:03:09;17.18;45.43
68842;SHT35;55849;48.482;2.332;2024-03-25T14:06:09;17.15;45.45
68842;SHT35;55849;48.482;2.332;2024-03-25T14:09:10;17.15;45.25
68842;SHT35;55849;48.482;2.332;2024-03-25T14:12:11;17.20;46.12
68842;SHT35;55849;48.482;2.332;2024-03-25T14:15:11;17.28;46.18
68842;SHT35;55849;48.482;2.332;2024-03-25T14:18:13;17.41;45.62
68842;SHT35;55849;48.482;2.332;2024-03-25T14:21:14;17.46;46.18
68842;SHT35;55849;48.482;2.332;2024-03-25T14:24:15;17.50;46.06
68842;SHT35;55849;48.482;2.332;2024-03-25T14:27:15;17.52;45.70
68842;SHT35;55849;48.482;2.332;2024-03-25T14:30:16;17.48;45.81
68842;SHT35;55849;48.482;2.332;2024-03-25T14:33:18;17.46;46.27
68842;SHT35;55849;48.482;2.332;2024-03-25T14:36:19;17.45;46.09
68842;SHT35;55849;48.482;2.332;2024-03-25T14:39:19;17.43;46.28
68842;SHT35;55849;48.482;2.332;2024-03-25T14:42:20;17.45;46.83
68842;SHT35;55849;48.482;2.332;2024-03-25T14:45:20;17.46;46.68
68842;SHT35;55849;48.482;2.332;2024-03-25T14:48:23;17.50;46.01
68842;SHT35;55849;48.482;2.332;2024-03-25T14:51:23;17.53;46.20
68842;SHT35;55849;48.482;2.332;2024-03-25T14:54:32;17.56;45.61
68842;SHT35;55849;48.482;2.332;2024-03-25T14:57:33;17.57;46.14
68842;SHT35;55849;48.482;2.332;2024-03-25T15:00:34;17.59;46.16
68842;SHT35;55849;48.482;2.332;2024-03-25T15:03:36;17.62;47.16
68842;SHT35;55849;48.482;2.332;2024-03-25T15:06:36;17.63;46.03
68842;SHT35;55849;48.482;2.332;2024-03-25T15:09:37;17.65;46.28
68842;SHT35;55849;48.482;2.332;2024-03-25T15:12:38;17.63;46.71
68842;SHT35;55849;48.482;2.332;2024-03-25T15:15:39;17.63;46.57
68842;SHT35;55849;48.482;2.332;2024-03-25T15:18:41;17.65;45.46
68842;SHT35;55849;48.482;2.332;2024-03-25T15:21:41;17.62;45.66
68842;SHT35;55849;48.482;2.332;2024-03-25T15:24:42;17.57;46.76
68842;SHT35;55849;48.482;2.332;2024-03-25T15:27:43;17.62;46.26
68842;SHT35;55849;48.482;2.332;2024-03-25T15:30:43;17.63;47.22
68842;SHT35;55849;48.482;2.332;2024-03-25T15:33:46;17.70;46.73
68842;SHT35;55849;48.482;2.332;2024-03-25T15:36:47;17.73;46.80
68842;SHT35;55849;48.482;2.332;2024-03-25T15:39:47;17.80;46.91
68842;SHT35;55849;48.482;2.332;2024-03-25T15:42:48;17.84;46.55
68842;SHT35;55849;48.482;2.332;2024-03-25T15:45:54;17.93;46.18
68842;SHT35;55849;48.482;2.332;2024-03-25T15:48:56;17.96;46.37
68842;SHT35;55849;48.482;2.332;2024-03-25T15:51:56;17.98;46.30
68842;SHT35;55849;48.482;2.332;2024-03-25T15:54:57;17.97;46.40
68842;SHT35;55849;48.482;2.332;2024-03-25T15:58:00;18.00;46.08
68842;SHT35;55849;48.482;2.332;2024-03-25T16:01:01;18.00;46.50
68842;SHT35;55849;48.482;2.332;2024-03-25T16:04:04;18.02;46.57
68842;SHT35;55849;48.482;2.332;2024-03-25T16:07:04;18.00;47.29
68842;SHT35;55849;48.482;2.332;2024-03-25T16:10:06;17.98;46.23
68842;SHT35;55849;48.482;2.332;2024-03-25T16:13:07;17.96;47.40
68842;SHT35;55849;48.482;2.332;2024-03-25T16:16:08;17.91;47.21
68842;SHT35;55849;48.482;2.332;2024-03-25T16:19:10;17.89;47.46
68842;SHT35;55849;48.482;2.332;2024-03-25T16:22:10;17.86;47.56
68842;SHT35;55849;48.482;2.332;2024-03-25T16:25:12;17.86;47.01
68842;SHT35;55849;48.482;2.332;2024-03-25T16:28:12;17.79;47.01
68842;SHT35;55849;48.482;2.332;2024-03-25T16:31:13;17.73;47.37
68842;SHT35;55849;48.482;2.332;2024-03-25T16:34:15;17.69;46.99
68842;SHT35;55849;48.482;2.332;2024-03-25T16:37:16;17.65;46.94
68842;SHT35;55849;48.482;2.332;2024-03-25T16:40:16;17.59;47.82
68842;SHT35;55849;48.482;2.332;2024-03-25T16:43:17;17.52;47.15
68842;SHT35;55849;48.482;2.332;2024-03-25T16:46:18;17.49;47.46
68842;SHT35;55849;48.482;2.332;2024-03-25T16:49:20;17.43;47.77
68842;SHT35;55849;48.482;2.332;2024-03-25T16:52:21;17.41;48.37
68842;SHT35;55849;48.482;2.332;2024-03-25T16:55:22;17.36;48.41
68842;SHT35;55849;48.482;2.332;2024-03-25T16:58:23;17.32;48.37
68842;SHT35;55849;48.482;2.332;2024-03-25T17:01:23;17.27;48.54
68842;SHT35;55849;48.482;2.332;2024-03-25T17:04:25;17.20;48.56
68842;SHT35;55849;48.482;2.332;2024-03-25T17:07:26;17.15;49.21
68842;SHT35;55849;48.482;2.332;2024-03-25T17:10:29;17.08;48.75
68842;SHT35;55849;48.482;2.332;2024-03-25T17:13:30;16.99;48.73
68842;SHT35;55849;48.482;2.332;2024-03-25T17:16:31;16.91;48.94
68842;SHT35;55849;48.482;2.332;2024-03-25T17:19:34;16.81;49.34
68842;SHT35;55849;48.482;2.332;2024-03-25T17:22:34;16.76;49.79
68842;SHT35;55849;48.482;2.332;2024-03-25T17:25:36;16.66;49.68
68842;SHT35;55849;48.482;2.332;2024-03-25T17:28:37;16.59;49.77
68842;SHT35;55849;48.482;2.332;2024-03-25T17:31:37;16.51;50.05
68842;SHT35;55849;48.482;2.332;2024-03-25T17:34:39;16.41;50.47
68842;SHT35;55849;48.482;2.332;2024-03-25T17:37:40;16.34;50.65
68842;SHT35;55849;48.482;2.332;2024-03-25T17:40:41;16.24;50.70
68842;SHT35;55849;48.482;2.332;2024-03-25T17:43:41;16.16;50.97
68842;SHT35;55849;48.482;2.332;2024-03-25T17:46:42;16.10;51.10
68842;SHT35;55849;48.482;2.332;2024-03-25T17:49:44;16.02;51.33
68842;SHT35;55849;48.482;2.332;2024-03-25T17:52:45;15.94;51.61
68842;SHT35;55849;48.482;2.332;2024-03-25T17:55:46;15.85;51.74
68842;SHT35;55849;48.482;2.332;2024-03-25T17:58:46;15.79;51.95
68842;SHT35;55849;48.482;2.332;2024-03-25T18:01:47;15.70;52.38
68842;SHT35;55849;48.482;2.332;2024-03-25T18:04:49;15.63;52.32
68842;SHT35;55849;48.482;2.332;2024-03-25T18:07:50;15.55;52.52
68842;SHT35;55849;48.482;2.332;2024-03-25T18:10:50;15.44;52.70
68842;SHT35;55849;48.482;2.332;2024-03-25T18:13:51;15.38;52.62
68842;SHT35;55849;48.482;2.332;2024-03-25T18:16:52;15.31;52.91
68842;SHT35;55849;48.482;2.332;2024-03-25T18:19:54;15.27;53.11
68842;SHT35;55849;48.482;2.332;2024-03-25T18:22:54;15.20;53.31
68842;SHT35;55849;48.482;2.332;2024-03-25T18:25:55;15.11;53.35
68842;SHT35;55849;48.482;2.332;2024-03-25T18:28:56;15.06;53.72
68842;SHT35;55849;48.482;2.332;2024-03-25T18:31:56;14.99;54.19
68842;SHT35;55849;48.482;2.332;2024-03-25T18:34:58;14.89;54.38
68842;SHT35;55849;48.482;2.332;2024-03-25T18:37:59;14.81;54.48
68842;SHT35;55849;48.482;2.332;2024-03-25T18:41:00;14.75;54.70
68842;SHT35;55849;48.482;2.332;2024-03-25T18:44:02;14.69;54.47
68842;SHT35;55849;48.482;2.332;2024-03-25T18:47:03;14.64;54.54
68842;SHT35;55849;48.482;2.332;2024-03-25T18:50:06;14.60;54.63
68842;SHT35;55849;48.482;2.332;2024-03-25T18:53:07;14.55;54.94
68842;SHT35;55849;48.482;2.332;2024-03-25T18:56:08;14.49;55.07
68842;SHT35;55849;48.482;2.332;2024-03-25T18:59:08;14.47;54.96
68842;SHT35;55849;48.482;2.332;2024-03-25T19:02:09;14.44;55.06
68842;SHT35;55849;48.482;2.332;2024-03-25T19:05:11;14.38;55.11
68842;SHT35;55849;48.482;2.332;2024-03-25T19:08:12;14.37;55.36
68842;SHT35;55849;48.482;2.332;2024-03-25T19:11:12;14.30;55.08
68842;SHT35;55849;48.482;2.332;2024-03-25T19:14:13;14.27;54.85